Time;durP1;ratioP1;P1;durP2;ratioP2;P2;SDS_P1;SDS_P2;PMS_P1;PMS_P2;Temp;Humidity;BMP_temperature;BMP_pressure;BME280_temperature;BME280_humidity;BME280_pressure;Samples;Min_cycle;Max_cycle;Signal;HPM_P1;HPM_P2
2021/05/01 00:01:21;;;;;;;10.88;4.70;;;6.40;99.90;;;;;;5105180;28;20036;-63
2021/05/01 00:03:47;;;;;;;13.05;5.30;;;6.40;99.90;;;;;;5100326;28;20504;-64
2021/05/01 00:06:12;;;;;;;13.77;5.63;;;6.30;99.90;;;;;;5098473;28;20111;-65
2021/05/01 00:08:38;;;;;;;10.73;4.90;;;6.30;99.90;;;;;;5105303;28;20039;-63
2021/05/01 00:11:04;;;;;;;11.07;5.70;;;6.30;99.90;;;;;;5102167;28;20042;-64
2021/05/01 00:13:32;;;;;;;10.38;4.75;;;6.30;99.90;;;;;;5099937;27;20073;-64
2021/05/01 00:15:59;;;;;;;11.98;4.90;;;6.20;99.90;;;;;;5123511;27;20059;-64
2021/05/01 00:18:25;;;;;;;10.30;4.95;;;6.30;99.90;;;;;;5101884;27;20639;-64
2021/05/01 00:20:51;;;;;;;12.07;4.90;;;6.30;99.90;;;;;;5100547;28;20161;-64
2021/05/01 00:23:16;;;;;;;11.57;5.45;;;6.30;99.90;;;;;;5104250;27;20095;-64
2021/05/01 00:25:42;;;;;;;12.00;5.63;;;6.30;99.90;;;;;;5098956;27;20040;-64
2021/05/01 00:28:08;;;;;;;12.80;5.47;;;6.40;99.90;;;;;;5102063;28;20058;-65
2021/05/01 00:30:33;;;;;;;14.55;5.47;;;6.40;99.90;;;;;;5106425;27;20028;-65
2021/05/01 00:32:59;;;;;;;11.77;4.88;;;6.40;99.90;;;;;;5098731;28;20032;-64
2021/05/01 00:35:27;;;;;;;9.13;4.25;;;6.40;99.90;;;;;;5096905;28;20111;-65
2021/05/01 00:37:52;;;;;;;7.78;4.55;;;6.40;99.90;;;;;;5105713;27;20028;-63
2021/05/01 00:40:18;;;;;;;10.35;4.50;;;6.50;99.90;;;;;;5101765;28;20046;-66
2021/05/01 00:42:44;;;;;;;10.73;4.40;;;6.50;99.90;;;;;;5104370;28;20038;-64
2021/05/01 00:45:10;;;;;;;7.90;3.75;;;6.50;99.90;;;;;;5105342;28;20032;-64
2021/05/01 00:47:35;;;;;;;12.98;4.75;;;6.50;99.90;;;;;;5106961;27;20082;-64
2021/05/01 00:50:01;;;;;;;17.00;4.93;;;6.50;99.90;;;;;;5099396;27;20047;-65
2021/05/01 00:52:27;;;;;;;11.40;4.13;;;6.50;99.90;;;;;;5100620;28;20024;-64
2021/05/01 00:54:53;;;;;;;10.48;4.07;;;6.50;99.90;;;;;;5100306;28;20030;-65
2021/05/01 00:57:19;;;;;;;10.98;3.63;;;6.50;99.90;;;;;;5106061;28;20031;-65
2021/05/01 00:59:44;;;;;;;10.23;3.42;;;6.50;99.90;;;;;;5101726;27;20032;-67
2021/05/01 01:02:12;;;;;;;8.23;3.95;;;6.40;99.90;;;;;;5096397;27;20541;-63
2021/05/01 01:04:38;;;;;;;12.40;4.60;;;6.30;99.90;;;;;;5101767;27;20400;-63
2021/05/01 01:07:04;;;;;;;15.73;4.43;;;6.30;99.90;;;;;;5102356;28;20092;-66
2021/05/01 01:09:29;;;;;;;11.82;4.15;;;6.20;99.90;;;;;;5097807;28;20032;-64
2021/05/01 01:11:55;;;;;;;10.25;4.00;;;6.20;99.90;;;;;;5100604;28;20519;-63
2021/05/01 01:14:21;;;;;;;9.73;3.45;;;6.10;99.90;;;;;;5099086;27;20361;-63
2021/05/01 01:16:46;;;;;;;13.43;4.38;;;6.10;99.90;;;;;;5094889;28;20043;-65
2021/05/01 01:19:15;;;;;;;13.13;4.82;;;6.00;99.90;;;;;;5099477;28;20088;-63
2021/05/01 01:21:48;;;;;;;13.07;4.57;;;5.90;99.90;;;;;;5105204;27;20030;-64
2021/05/01 01:24:14;;;;;;;10.35;4.65;;;5.90;99.90;;;;;;5098408;28;20074;-64
2021/05/01 01:26:41;;;;;;;12.27;5.88;;;5.80;99.90;;;;;;5096727;28;20055;-64
2021/05/01 01:29:07;;;;;;;13.77;4.82;;;5.80;99.90;;;;;;5099574;28;20035;-64
2021/05/01 01:31:34;;;;;;;15.18;5.70;;;5.80;99.90;;;;;;5096194;28;20142;-64
2021/05/01 01:34:01;;;;;;;14.05;5.55;;;5.70;99.90;;;;;;5099446;28;20036;-65
2021/05/01 01:36:27;;;;;;;18.45;6.55;;;5.70;99.90;;;;;;5099907;27;20038;-65
2021/05/01 01:38:52;;;;;;;14.18;6.13;;;5.70;99.90;;;;;;5096835;28;20035;-64
2021/05/01 01:41:19;;;;;;;18.70;5.93;;;5.60;99.90;;;;;;5097415;27;20048;-64
2021/05/01 01:43:44;;;;;;;12.48;5.65;;;5.60;99.90;;;;;;5098539;27;20049;-65
2021/05/01 01:46:10;;;;;;;17.10;6.03;;;5.60;99.90;;;;;;5096772;28;20099;-64
2021/05/01 01:48:35;;;;;;;12.65;5.65;;;5.50;99.90;;;;;;5096872;28;20046;-64
2021/05/01 01:51:01;;;;;;;23.65;6.40;;;5.50;99.90;;;;;;5099583;28;20036;-65
2021/05/01 01:53:27;;;;;;;18.40;7.57;;;5.50;99.90;;;;;;5096351;28;20500;-65
2021/05/01 01:55:53;;;;;;;20.13;7.63;;;5.40;99.90;;;;;;5101687;28;20493;-64
2021/05/01 01:58:19;;;;;;;17.45;7.55;;;5.40;99.90;;;;;;5096465;28;20118;-65
2021/05/01 02:00:46;;;;;;;18.27;7.30;;;5.40;99.90;;;;;;5097328;28;20024;-64
2021/05/01 02:03:14;;;;;;;22.05;7.10;;;5.30;99.90;;;;;;5098468;28;20027;-65
2021/05/01 02:05:41;;;;;;;15.82;7.88;;;5.30;99.90;;;;;;5095849;28;20032;-64
2021/05/01 02:08:07;;;;;;;18.27;7.30;;;5.30;99.90;;;;;;5098393;28;20055;-64
2021/05/01 02:10:32;;;;;;;19.73;7.82;;;5.30;99.90;;;;;;5095028;28;20055;-65
2021/05/01 02:12:58;;;;;;;19.15;6.95;;;5.30;99.90;;;;;;5096989;28;20028;-64
2021/05/01 02:15:24;;;;;;;13.40;7.30;;;5.20;99.90;;;;;;5095829;28;20519;-64
2021/05/01 02:17:52;;;;;;;14.13;7.05;;;5.20;99.90;;;;;;5097339;28;20028;-64
2021/05/01 02:20:20;;;;;;;17.30;7.13;;;5.20;99.90;;;;;;5096631;28;20043;-64
2021/05/01 02:22:46;;;;;;;25.13;8.57;;;5.20;99.90;;;;;;5103333;27;20056;-65
2021/05/01 02:25:13;;;;;;;14.50;7.35;;;5.20;99.90;;;;;;5100062;28;20120;-64
2021/05/01 02:27:39;;;;;;;19.50;7.82;;;5.10;99.90;;;;;;5096396;28;20127;-64
2021/05/01 02:30:11;;;;;;;18.92;7.65;;;5.10;99.90;;;;;;5098173;28;20496;-65
2021/05/01 02:32:36;;;;;;;15.57;7.50;;;5.10;99.90;;;;;;5096297;28;20046;-65
2021/05/01 02:35:05;;;;;;;23.92;7.82;;;5.10;99.90;;;;;;5100009;28;20032;-63
2021/05/01 02:37:31;;;;;;;13.52;7.03;;;5.20;99.90;;;;;;5100060;28;20585;-63
2021/05/01 02:39:56;;;;;;;13.25;6.57;;;5.20;99.90;;;;;;5095094;28;20119;-65
2021/05/01 02:42:22;;;;;;;23.13;7.55;;;5.20;99.90;;;;;;5098842;28;20115;-66
2021/05/01 02:44:48;;;;;;;15.02;6.85;;;5.20;99.90;;;;;;5097457;28;20115;-63
2021/05/01 02:47:14;;;;;;;19.38;7.28;;;5.20;99.90;;;;;;5098011;28;20036;-65
2021/05/01 02:49:40;;;;;;;19.20;7.70;;;5.10;99.90;;;;;;5098639;28;20791;-64
2021/05/01 02:52:05;;;;;;;17.00;6.78;;;5.10;99.90;;;;;;5099738;28;20031;-63
2021/05/01 02:54:31;;;;;;;15.30;7.28;;;5.00;99.90;;;;;;5095789;28;20024;-64
2021/05/01 02:56:56;;;;;;;17.73;7.18;;;5.00;99.90;;;;;;5100806;28;20427;-66
2021/05/01 02:59:22;;;;;;;21.95;7.50;;;5.00;99.90;;;;;;5098852;28;20050;-63
2021/05/01 03:01:47;;;;;;;17.80;7.90;;;5.00;99.90;;;;;;5097875;28;20384;-64
2021/05/01 03:04:13;;;;;;;17.40;8.20;;;5.00;99.90;;;;;;5097548;28;20109;-64
2021/05/01 03:06:39;;;;;;;14.00;7.15;;;5.00;99.90;;;;;;5098274;28;20464;-63
2021/05/01 03:09:05;;;;;;;17.42;7.20;;;5.00;99.90;;;;;;5099049;28;20050;-64
2021/05/01 03:11:31;;;;;;;15.55;7.15;;;4.90;99.90;;;;;;5099710;28;20032;-63
2021/05/01 03:13:57;;;;;;;18.55;8.00;;;4.90;99.90;;;;;;5096580;28;20554;-67
2021/05/01 03:16:22;;;;;;;15.98;7.85;;;4.80;99.90;;;;;;5099470;28;20028;-63
2021/05/01 03:18:48;;;;;;;25.05;7.38;;;4.80;99.90;;;;;;5097030;28;20027;-65
2021/05/01 03:21:13;;;;;;;23.02;8.20;;;4.80;99.90;;;;;;5106118;28;20500;-64
2021/05/01 03:23:39;;;;;;;16.92;7.90;;;4.70;99.90;;;;;;5102550;28;20036;-63
2021/05/01 03:26:05;;;;;;;12.90;6.32;;;4.70;99.90;;;;;;5104676;28;20042;-64
2021/05/01 03:28:30;;;;;;;17.70;7.80;;;4.70;99.90;;;;;;5101447;28;20040;-66
2021/05/01 03:30:56;;;;;;;18.17;7.25;;;4.60;99.90;;;;;;5103279;28;20050;-66
2021/05/01 03:33:21;;;;;;;20.13;7.75;;;4.60;99.90;;;;;;5100351;28;20035;-63
2021/05/01 03:35:47;;;;;;;17.05;7.70;;;4.60;99.90;;;;;;5101326;28;20126;-64
2021/05/01 03:38:13;;;;;;;17.50;7.47;;;4.50;99.90;;;;;;5102855;27;20039;-65
2021/05/01 03:40:38;;;;;;;18.58;8.18;;;4.50;99.90;;;;;;5101135;28;20027;-63
2021/05/01 03:43:05;;;;;;;14.23;7.25;;;4.50;99.90;;;;;;5100779;28;20441;-63
2021/05/01 03:45:31;;;;;;;17.02;8.32;;;4.50;99.90;;;;;;5102947;28;20039;-63
2021/05/01 03:47:56;;;;;;;16.52;7.95;;;4.40;99.90;;;;;;5104756;28;20078;-65
2021/05/01 03:50:22;;;;;;;18.52;7.68;;;4.40;99.90;;;;;;5109643;28;20606;-64
2021/05/01 03:52:48;;;;;;;19.73;8.57;;;4.40;99.90;;;;;;5098404;28;20114;-66
2021/05/01 03:55:13;;;;;;;14.48;7.65;;;4.40;99.90;;;;;;5101085;28;20036;-65
2021/05/01 03:57:39;;;;;;;15.85;8.10;;;4.40;99.90;;;;;;5106648;28;20597;-63
2021/05/01 04:00:05;;;;;;;26.48;9.15;;;4.40;99.90;;;;;;5097750;28;20497;-63
2021/05/01 04:02:31;;;;;;;17.15;8.15;;;4.40;99.90;;;;;;5102094;28;20063;-63
2021/05/01 04:04:56;;;;;;;16.20;8.07;;;4.40;99.90;;;;;;5098389;28;20064;-65
2021/05/01 04:07:22;;;;;;;24.58;8.63;;;4.30;99.90;;;;;;5102018;28;20048;-64
2021/05/01 04:09:47;;;;;;;21.48;9.13;;;4.30;99.90;;;;;;5098528;28;20032;-67
2021/05/01 04:12:13;;;;;;;18.10;8.25;;;4.30;99.90;;;;;;5108191;28;20039;-64
2021/05/01 04:14:38;;;;;;;17.63;8.68;;;4.30;99.90;;;;;;5098438;28;20107;-65
2021/05/01 04:17:04;;;;;;;23.67;10.10;;;4.30;99.90;;;;;;5099948;27;20093;-63
2021/05/01 04:19:30;;;;;;;20.67;9.13;;;4.20;99.90;;;;;;5098674;28;20024;-64
2021/05/01 04:22:03;;;;;;;21.67;8.88;;;4.20;99.90;;;;;;5106755;27;20035;-64
2021/05/01 04:24:29;;;;;;;18.00;8.85;;;4.20;99.90;;;;;;5102403;28;20036;-64
2021/05/01 04:26:54;;;;;;;19.38;9.27;;;4.20;99.90;;;;;;5101936;28;20108;-66
2021/05/01 04:29:20;;;;;;;18.73;7.97;;;4.20;99.90;;;;;;5098017;28;20232;-65
2021/05/01 04:31:45;;;;;;;24.63;8.63;;;4.20;99.90;;;;;;5108235;28;20081;-64
2021/05/01 04:34:11;;;;;;;21.77;8.65;;;4.20;99.90;;;;;;5101904;27;20028;-66
2021/05/01 04:36:37;;;;;;;15.23;8.63;;;4.20;99.90;;;;;;5105441;27;20031;-64
2021/05/01 04:39:03;;;;;;;16.58;7.38;;;4.20;99.90;;;;;;5100350;28;20036;-63
2021/05/01 04:41:28;;;;;;;17.70;9.45;;;4.20;99.90;;;;;;5096464;28;20032;-63
2021/05/01 04:43:54;;;;;;;19.67;8.52;;;4.20;99.90;;;;;;5102089;27;20061;-65
2021/05/01 04:46:19;;;;;;;17.58;8.55;;;4.20;99.90;;;;;;5098175;27;20058;-63
2021/05/01 04:48:45;;;;;;;27.42;9.23;;;4.20;99.90;;;;;;5100691;28;20160;-63
2021/05/01 04:51:11;;;;;;;16.73;9.20;;;4.20;99.90;;;;;;5097830;28;20031;-64
2021/05/01 04:53:37;;;;;;;15.85;8.48;;;4.20;99.90;;;;;;5106762;28;20427;-65
2021/05/01 04:56:02;;;;;;;17.40;8.95;;;4.20;99.90;;;;;;5099011;28;20050;-62
2021/05/01 04:58:28;;;;;;;18.40;9.25;;;4.30;99.90;;;;;;5097516;28;20161;-63
2021/05/01 05:00:53;;;;;;;23.70;8.88;;;4.30;99.90;;;;;;5100216;28;20062;-64
2021/05/01 05:03:19;;;;;;;13.88;8.32;;;4.30;99.90;;;;;;5097571;28;20117;-64
2021/05/01 05:05:45;;;;;;;14.68;8.32;;;4.40;99.90;;;;;;5098167;28;20032;-63
2021/05/01 05:08:11;;;;;;;16.63;9.20;;;4.40;99.90;;;;;;5098923;28;20039;-67
2021/05/01 05:10:36;;;;;;;18.83;8.88;;;4.40;99.90;;;;;;5098168;28;20059;-65
2021/05/01 05:13:02;;;;;;;21.33;7.97;;;4.50;99.90;;;;;;5100973;28;20195;-65
2021/05/01 05:15:28;;;;;;;18.92;9.15;;;4.50;99.90;;;;;;5100469;28;20039;-64
2021/05/01 05:17:54;;;;;;;17.77;7.95;;;4.60;99.90;;;;;;5096639;28;20051;-63
2021/05/01 05:20:20;;;;;;;18.52;8.07;;;4.70;99.90;;;;;;5097001;28;20028;-64
2021/05/01 05:22:45;;;;;;;16.70;8.38;;;4.70;99.90;;;;;;5104551;27;20640;-65
2021/05/01 05:25:12;;;;;;;18.45;8.77;;;4.80;99.90;;;;;;5098146;28;20406;-63
2021/05/01 05:27:37;;;;;;;16.15;7.95;;;4.90;99.90;;;;;;5097725;28;20096;-63
2021/05/01 05:30:04;;;;;;;14.98;8.38;;;4.90;99.90;;;;;;5100997;28;20040;-66
2021/05/01 05:32:29;;;;;;;20.90;9.10;;;5.00;99.90;;;;;;5098582;28;20056;-63
2021/05/01 05:34:55;;;;;;;16.20;7.47;;;5.10;99.90;;;;;;5101718;28;20071;-64
2021/05/01 05:37:21;;;;;;;16.55;8.10;;;5.10;99.90;;;;;;5104402;27;20495;-66
2021/05/01 05:39:49;;;;;;;17.75;7.95;;;5.20;99.90;;;;;;5103807;28;20115;-67
2021/05/01 05:42:16;;;;;;;14.30;7.60;;;5.30;99.90;;;;;;5097460;28;20038;-63
2021/05/01 05:44:44;;;;;;;19.48;7.93;;;5.40;99.90;;;;;;5103564;28;20118;-63
2021/05/01 05:47:11;;;;;;;15.52;7.75;;;5.60;99.90;;;;;;5097467;28;20038;-63
2021/05/01 05:49:37;;;;;;;13.05;7.05;;;5.80;99.90;;;;;;5099086;28;20039;-64
2021/05/01 05:52:03;;;;;;;11.57;5.82;;;6.70;99.90;;;;;;5098347;28;20067;-64
2021/05/01 05:54:28;;;;;;;9.60;5.00;;;8.00;99.90;;;;;;5105168;28;20059;-65
2021/05/01 05:56:54;;;;;;;12.15;4.45;;;9.30;99.90;;;;;;5101793;28;20095;-64
2021/05/01 05:59:20;;;;;;;11.40;4.43;;;10.60;99.90;;;;;;5100349;28;20031;-64
2021/05/01 06:01:47;;;;;;;8.38;4.40;;;12.00;99.90;;;;;;5108022;28;20035;-64
2021/05/01 06:04:20;;;;;;;9.50;4.25;;;12.90;99.90;;;;;;5104340;28;20135;-66
2021/05/01 06:07:11;;;;;;;7.70;3.85;;;13.80;99.90;;;;;;5103596;28;20032;-66
2021/05/01 06:09:40;;;;;;;;;;;14.90;99.90;;;;;;5109337;27;20577;-69
2021/05/01 06:12:09;;;;;;;6.95;2.85;;;15.50;99.90;;;;;;5118831;27;19958;-66
2021/05/01 06:14:40;;;;;;;8.50;3.53;;;15.90;99.90;;;;;;5104326;28;20055;-66
2021/05/01 06:17:06;;;;;;;7.63;3.15;;;16.60;98.60;;;;;;5104409;28;20561;-68
2021/05/01 06:19:32;;;;;;;5.32;3.00;;;16.80;95.50;;;;;;5103484;27;20028;-65
2021/05/01 06:21:59;;;;;;;7.55;3.30;;;17.20;94.50;;;;;;5101898;28;20094;-65
2021/05/01 06:24:25;;;;;;;5.90;2.70;;;17.40;91.80;;;;;;5122486;27;20038;-69
2021/05/01 06:26:51;;;;;;;5.95;2.60;;;17.60;91.80;;;;;;5113415;27;20034;-69
2021/05/01 06:29:18;;;;;;;6.80;3.17;;;18.00;87.80;;;;;;5103842;28;20150;-69
2021/05/01 06:31:44;;;;;;;6.03;2.38;;;17.90;85.00;;;;;;5108963;27;20040;-69
2021/05/01 06:34:11;;;;;;;5.07;2.67;;;18.50;83.10;;;;;;5102536;28;20116;-68
2021/05/01 06:36:37;;;;;;;5.90;2.85;;;18.90;77.10;;;;;;5104372;27;20031;-69
2021/05/01 06:39:05;;;;;;;6.68;2.47;;;18.90;74.90;;;;;;5104218;28;20035;-66
2021/05/01 06:41:43;;;;;;;4.32;2.47;;;19.10;73.40;;;;;;5107171;27;20084;-65
2021/05/01 06:44:17;;;;;;;8.90;2.90;;;19.30;74.30;;;;;;5100939;28;20044;-67
2021/05/01 06:46:46;;;;;;;5.25;2.22;;;19.60;73.00;;;;;;5107848;28;20039;-66
2021/05/01 06:49:21;;;;;;;8.07;2.95;;;20.10;70.30;;;;;;5100251;28;20104;-66
2021/05/01 06:51:51;;;;;;;5.93;2.80;;;20.20;66.60;;;;;;5102267;28;20092;-66
2021/05/01 06:54:17;;;;;;;8.48;2.83;;;19.80;68.00;;;;;;5103712;28;20038;-69
2021/05/01 06:56:43;;;;;;;6.22;2.60;;;20.20;66.70;;;;;;5106287;28;20035;-65
2021/05/01 06:59:10;;;;;;;6.70;2.50;;;20.40;67.10;;;;;;5105425;28;20035;-65
2021/05/01 07:01:40;;;;;;;6.38;2.60;;;20.90;63.60;;;;;;5105954;27;20067;-66
2021/05/01 07:04:08;;;;;;;7.00;2.72;;;20.80;58.90;;;;;;5114373;27;20447;-66
2021/05/01 07:06:36;;;;;;;4.40;2.42;;;21.60;59.90;;;;;;5102240;27;20044;-66
2021/05/01 07:09:02;;;;;;;11.15;3.00;;;21.70;58.10;;;;;;5101619;28;20485;-66
2021/05/01 07:11:28;;;;;;;6.10;2.72;;;21.40;59.60;;;;;;5108553;27;20028;-66
2021/05/01 07:13:54;;;;;;;9.85;2.38;;;21.00;57.50;;;;;;5102580;28;20039;-65
2021/05/01 07:16:21;;;;;;;6.30;2.33;;;21.40;59.20;;;;;;5101527;28;20036;-66
2021/05/01 07:18:47;;;;;;;4.10;1.83;;;22.00;57.50;;;;;;5105584;27;20039;-65
2021/05/01 07:21:14;;;;;;;7.97;2.47;;;21.40;56.20;;;;;;5106308;28;20032;-66
2021/05/01 07:23:40;;;;;;;5.43;2.00;;;20.40;57.20;;;;;;5106756;28;20039;-67
2021/05/01 07:26:08;;;;;;;4.95;1.40;;;19.80;59.70;;;;;;5106495;28;20040;-67
2021/05/01 07:28:38;;;;;;;2.55;0.98;;;20.00;58.70;;;;;;5106676;27;20036;-66
2021/05/01 07:31:08;;;;;;;4.22;1.65;;;20.20;56.10;;;;;;5106741;28;20243;-66
2021/05/01 07:33:45;;;;;;;5.60;1.48;;;19.00;59.20;;;;;;5102696;28;20039;-66
2021/05/01 07:36:19;;;;;;;5.10;2.03;;;18.30;63.20;;;;;;5109203;27;20401;-66
2021/05/01 07:38:45;;;;;;;1.98;1.27;;;19.00;60.80;;;;;;5107383;28;20081;-65
2021/05/01 07:41:15;;;;;;;3.17;1.63;;;18.40;58.80;;;;;;5105296;28;20054;-68
2021/05/01 07:43:46;;;;;;;7.18;1.90;;;18.10;60.80;;;;;;5105099;28;20040;-71
2021/05/01 07:46:13;;;;;;;2.80;1.67;;;17.80;63.80;;;;;;5104703;28;20072;-67
2021/05/01 07:48:40;;;;;;;4.95;1.20;;;17.30;63.40;;;;;;5105794;28;20044;-67
2021/05/01 07:51:06;;;;;;;10.57;1.95;;;16.60;63.20;;;;;;5110577;28;20093;-68
2021/05/01 07:53:32;;;;;;;5.07;1.33;;;15.90;66.30;;;;;;5109017;27;20038;-67
2021/05/01 07:55:57;;;;;;;4.38;1.23;;;15.40;71.60;;;;;;5117056;27;20042;-68
2021/05/01 07:58:23;;;;;;;4.50;1.30;;;14.80;77.30;;;;;;5120167;27;20048;-69
2021/05/01 08:00:48;;;;;;;6.53;1.70;;;15.00;79.90;;;;;;5113963;27;20047;-66
2021/05/01 08:03:15;;;;;;;5.78;1.48;;;15.40;78.30;;;;;;5121398;27;20310;-65
2021/05/01 08:05:40;;;;;;;2.53;0.70;;;15.40;75.70;;;;;;5114363;27;20024;-65
2021/05/01 08:08:06;;;;;;;9.18;1.50;;;15.10;79.80;;;;;;5120402;27;20613;-68
2021/05/01 08:10:31;;;;;;;4.20;1.42;;;15.10;80.40;;;;;;5119834;27;20062;-68
2021/05/01 08:12:57;;;;;;;4.68;1.10;;;14.80;82.00;;;;;;5119898;27;20138;-67
2021/05/01 08:15:23;;;;;;;8.30;1.17;;;14.10;82.70;;;;;;5120079;27;20374;-67
2021/05/01 08:17:48;;;;;;;1.92;0.93;;;13.70;86.20;;;;;;5113430;27;20126;-64
2021/05/01 08:20:15;;;;;;;3.08;0.98;;;13.10;84.50;;;;;;5117189;27;20065;-65
2021/05/01 08:22:44;;;;;;;3.63;1.02;;;12.60;89.50;;;;;;5109250;27;20031;-66
2021/05/01 08:25:11;;;;;;;3.28;1.20;;;12.40;93.90;;;;;;5106352;27;20100;-65
2021/05/01 08:27:38;;;;;;;3.33;1.45;;;12.30;93.60;;;;;;5101312;28;20357;-65
2021/05/01 08:30:09;;;;;;;6.28;1.45;;;12.30;95.70;;;;;;5099910;28;20032;-65
2021/05/01 08:32:35;;;;;;;6.72;1.23;;;12.30;96.50;;;;;;5098926;28;20050;-65
2021/05/01 08:35:01;;;;;;;6.90;1.70;;;12.30;98.90;;;;;;5099766;27;20036;-66
2021/05/01 08:37:27;;;;;;;6.22;1.30;;;12.40;99.40;;;;;;5102229;27;20474;-65
2021/05/01 08:39:52;;;;;;;5.97;0.85;;;12.50;98.40;;;;;;5100374;28;20028;-66
2021/05/01 08:42:18;;;;;;;7.18;1.67;;;12.70;97.30;;;;;;5099321;28;20039;-65
2021/05/01 08:44:44;;;;;;;4.40;1.50;;;13.00;98.30;;;;;;5101475;28;20511;-65
2021/05/01 08:47:09;;;;;;;5.70;1.27;;;13.50;98.70;;;;;;5103255;27;20073;-66
2021/05/01 08:49:35;;;;;;;5.28;1.05;;;13.70;97.60;;;;;;5093038;28;20074;-66
2021/05/01 08:52:01;;;;;;;2.50;1.00;;;14.00;97.80;;;;;;5102442;28;20044;-68
2021/05/01 08:54:26;;;;;;;4.38;1.20;;;14.30;98.20;;;;;;5109702;28;20236;-65
2021/05/01 08:56:52;;;;;;;4.05;1.20;;;14.60;93.80;;;;;;5115425;28;20032;-65
2021/05/01 08:59:19;;;;;;;2.58;0.80;;;14.80;91.60;;;;;;5111809;27;20027;-66
2021/05/01 09:01:52;;;;;;;5.85;0.90;;;15.00;90.00;;;;;;5110651;27;20043;-67
2021/05/01 09:04:18;;;;;;;4.53;1.50;;;15.20;90.80;;;;;;5105060;28;20660;-67
2021/05/01 09:06:44;;;;;;;2.58;0.68;;;15.10;90.50;;;;;;5105946;28;20031;-66
2021/05/01 09:09:11;;;;;;;6.13;1.27;;;15.00;73.90;;;;;;5110892;27;20034;-66
2021/05/01 09:11:39;;;;;;;2.42;0.90;;;14.80;71.70;;;;;;5111085;27;20622;-66
2021/05/01 09:14:26;;;;;;;3.53;1.50;;;14.70;77.00;;;;;;5109421;27;20150;-67
2021/05/01 09:17:07;;;;;;;6.75;1.20;;;14.60;80.10;;;;;;5109911;27;20036;-66
2021/05/01 09:19:37;;;;;;;9.07;1.42;;;15.00;78.40;;;;;;5112410;27;20169;-66
2021/05/01 09:22:08;;;;;;;2.72;1.10;;;15.10;78.00;;;;;;5099320;27;20059;-66
2021/05/01 09:24:35;;;;;;;2.17;0.82;;;14.80;73.80;;;;;;5095406;28;20111;-66
2021/05/01 09:27:02;;;;;;;2.85;1.10;;;14.30;73.90;;;;;;5095041;28;20207;-66
2021/05/01 09:29:37;;;;;;;2.92;1.00;;;14.00;78.50;;;;;;5098304;28;20068;-66
2021/05/01 09:32:04;;;;;;;3.80;1.50;;;13.60;81.80;;;;;;5097126;28;20039;-67
2021/05/01 09:34:37;;;;;;;7.80;1.52;;;13.40;82.60;;;;;;5098416;28;20036;-66
2021/05/01 09:37:03;;;;;;;2.70;1.17;;;13.20;85.70;;;;;;5098479;27;20036;-66
2021/05/01 09:39:29;;;;;;;3.58;1.30;;;12.90;84.60;;;;;;5096580;28;20040;-66
2021/05/01 09:41:55;;;;;;;1.52;1.05;;;13.00;90.70;;;;;;5096750;28;20521;-67
2021/05/01 09:44:23;;;;;;;4.30;0.98;;;13.30;91.00;;;;;;5096963;28;20031;-67
2021/05/01 09:46:50;;;;;;;2.15;0.88;;;13.50;89.10;;;;;;5097351;28;20035;-67
2021/05/01 09:49:28;;;;;;;2.30;0.88;;;13.90;79.60;;;;;;5097780;28;20039;-67
2021/05/01 09:51:55;;;;;;;1.38;0.57;;;14.20;77.90;;;;;;5097861;28;20039;-67
2021/05/01 09:54:28;;;;;;;4.60;1.38;;;14.40;78.00;;;;;;5097163;28;20408;-66
2021/05/01 09:56:56;;;;;;;4.15;2.05;;;14.80;76.50;;;;;;5097591;28;20444;-67
2021/05/01 09:59:32;;;;;;;4.38;1.00;;;14.70;68.40;;;;;;5097086;28;20366;-67
2021/05/01 10:01:59;;;;;;;3.97;0.95;;;14.40;70.20;;;;;;5098502;28;20050;-67
2021/05/01 10:04:26;;;;;;;7.47;1.92;;;14.20;76.00;;;;;;5097889;27;20504;-67
2021/05/01 10:07:04;;;;;;;3.53;1.55;;;14.00;77.90;;;;;;5094278;28;20036;-67
2021/05/01 10:09:41;;;;;;;3.13;0.82;;;13.70;82.50;;;;;;5096590;27;20411;-67
2021/05/01 10:12:16;;;;;;;3.03;0.85;;;13.60;88.40;;;;;;5096578;27;20148;-67
2021/05/01 10:14:43;;;;;;;3.92;0.88;;;13.90;82.10;;;;;;5102422;28;20036;-67
2021/05/01 10:17:32;;;;;;;2.72;1.15;;;14.10;75.80;;;;;;5099082;28;20034;-67
2021/05/01 10:20:05;;;;;;;2.78;0.95;;;14.30;80.20;;;;;;5091710;28;20109;-66
2021/05/01 10:22:44;;;;;;;1.48;0.60;;;14.40;79.50;;;;;;5095239;28;20062;-66
2021/05/01 10:25:25;;;;;;;4.13;0.90;;;14.70;71.70;;;;;;5095816;28;20043;-67
2021/05/01 10:27:59;;;;;;;3.60;0.95;;;14.90;73.30;;;;;;5095758;28;20126;-66
2021/05/01 10:33:15;;;;;;;2.55;1.00;;;15.30;74.90;;;;;;5094361;28;20500;-67
2021/05/01 10:36:01;;;;;;;1.40;0.80;;;15.60;69.50;;;;;;5099180;28;20058;-67
2021/05/01 10:38:27;;;;;;;1.85;0.80;;;14.90;66.10;;;;;;5097020;28;20035;-66
2021/05/01 10:40:57;;;;;;;3.17;1.00;;;14.40;67.10;;;;;;5094844;28;20111;-66
2021/05/01 10:43:28;;;;;;;1.88;0.65;;;14.10;71.10;;;;;;5097169;28;21156;-66
2021/05/01 10:46:07;;;;;;;1.77;0.75;;;14.20;69.70;;;;;;5096480;28;20032;-67
2021/05/01 10:48:49;;;;;;;3.05;0.70;;;14.10;67.20;;;;;;5094028;28;20038;-67
2021/05/01 10:51:16;;;;;;;2.78;1.10;;;14.10;68.80;;;;;;5096209;28;20062;-66
2021/05/01 10:53:42;;;;;;;1.80;0.70;;;14.00;70.30;;;;;;5097550;28;20372;-66
2021/05/01 10:56:10;;;;;;;5.03;1.00;;;14.00;69.20;;;;;;5095284;28;20050;-66
2021/05/01 10:58:41;;;;;;;4.22;1.55;;;14.20;68.10;;;;;;5093022;28;20047;-66
2021/05/01 11:01:10;;;;;;;4.40;1.00;;;14.50;71.20;;;;;;5094067;28;20504;-66
2021/05/01 11:03:45;;;;;;;3.85;0.73;;;14.90;74.20;;;;;;5098305;28;20070;-66
2021/05/01 11:06:20;;;;;;;4.78;0.95;;;15.20;70.50;;;;;;5090627;28;20119;-66
2021/05/01 11:08:59;;;;;;;4.97;0.85;;;15.20;68.30;;;;;;5088808;28;20040;-67
2021/05/01 11:11:31;;;;;;;0.98;0.63;;;15.20;68.40;;;;;;5101919;27;20395;-67
2021/05/01 11:14:05;;;;;;;3.30;0.82;;;15.00;67.00;;;;;;5083903;28;20089;-66
2021/05/01 11:16:36;;;;;;;3.33;0.75;;;14.70;66.80;;;;;;5071458;28;20028;-66
2021/05/01 11:19:04;;;;;;;1.17;0.70;;;14.50;68.80;;;;;;5072792;28;20043;-66
2021/05/01 11:21:30;;;;;;;2.08;0.80;;;14.30;69.10;;;;;;5074234;28;20037;-66
2021/05/01 11:23:56;;;;;;;3.17;0.70;;;14.00;72.10;;;;;;5078965;28;20542;-66
2021/05/01 11:26:24;;;;;;;2.42;0.70;;;13.90;69.70;;;;;;5082310;28;20039;-66
2021/05/01 11:28:50;;;;;;;2.17;0.65;;;13.90;74.20;;;;;;5084479;28;20044;-65
2021/05/01 11:31:16;;;;;;;4.13;1.00;;;14.00;72.00;;;;;;5084628;28;20540;-65
2021/05/01 11:33:45;;;;;;;2.30;0.88;;;14.00;72.00;;;;;;5084082;28;20085;-66
2021/05/01 11:36:16;;;;;;;4.15;1.05;;;13.80;72.20;;;;;;5082776;28;20038;-66
2021/05/01 11:38:44;;;;;;;1.48;0.80;;;13.80;73.10;;;;;;5081450;28;20496;-66
2021/05/01 11:41:12;;;;;;;1.55;0.75;;;13.60;74.60;;;;;;5082675;28;20063;-65
2021/05/01 11:43:39;;;;;;;1.98;1.00;;;13.60;73.20;;;;;;5080577;28;20032;-65
2021/05/01 11:46:17;;;;;;;2.28;0.95;;;13.70;80.10;;;;;;5086358;27;20043;-66
2021/05/01 11:48:49;;;;;;;3.38;0.80;;;14.00;76.60;;;;;;5083764;28;20067;-66
2021/05/01 11:51:22;;;;;;;3.67;0.85;;;14.30;78.30;;;;;;5086515;27;20404;-65
2021/05/01 11:53:51;;;;;;;4.00;0.95;;;14.50;74.80;;;;;;5087114;28;20531;-66
2021/05/01 11:56:36;;;;;;;2.25;0.70;;;14.30;71.40;;;;;;5085894;28;20229;-65
2021/05/01 11:59:11;;;;;;;1.63;0.70;;;14.20;72.20;;;;;;5095245;28;20040;-65
2021/05/01 12:01:58;;;;;;;2.17;0.80;;;14.10;71.50;;;;;;5091001;27;20437;-66
2021/05/01 12:04:58;;;;;;;2.10;0.68;;;14.00;70.80;;;;;;5083945;28;20072;-65
2021/05/01 12:07:37;;;;;;;1.20;0.65;;;13.80;67.30;;;;;;5086681;28;20044;-65
2021/05/01 12:10:24;;;;;;;2.33;0.68;;;13.90;69.30;;;;;;5089361;28;20043;-66
2021/05/01 12:13:00;;;;;;;1.23;0.60;;;14.10;73.20;;;;;;5084159;28;20032;-65
2021/05/01 12:15:38;;;;;;;4.30;0.57;;;14.20;72.80;;;;;;5085352;28;20039;-65
2021/05/01 12:18:05;;;;;;;2.45;1.17;;;14.50;67.80;;;;;;5092163;28;20636;-66
2021/05/01 12:20:34;;;;;;;1.80;0.75;;;14.50;68.00;;;;;;5088755;28;20637;-65
2021/05/01 12:23:05;;;;;;;2.00;0.93;;;14.30;68.00;;;;;;5091843;28;20369;-65
2021/05/01 12:25:35;;;;;;;1.40;0.65;;;14.30;68.90;;;;;;5088014;28;20050;-65
2021/05/01 12:28:01;;;;;;;10.50;1.55;;;14.30;69.40;;;;;;5089485;28;20475;-65
2021/05/01 12:30:36;;;;;;;1.50;0.77;;;14.30;72.90;;;;;;5101703;28;20103;-66
2021/05/01 12:33:29;;;;;;;3.60;0.85;;;14.50;69.30;;;;;;5092229;28;20357;-65
2021/05/01 12:35:59;;;;;;;2.08;0.57;;;14.50;67.00;;;;;;5096222;28;20043;-66
2021/05/01 12:38:26;;;;;;;1.17;0.63;;;14.50;67.40;;;;;;5090704;28;20075;-65
2021/05/01 12:41:10;;;;;;;1.95;0.60;;;14.60;69.70;;;;;;5085303;28;20043;-65
2021/05/01 12:43:42;;;;;;;1.17;0.52;;;14.70;66.10;;;;;;5083908;28;20036;-66
2021/05/01 12:46:13;;;;;;;1.65;0.77;;;14.90;64.00;;;;;;5087974;28;20050;-65
2021/05/01 12:48:42;;;;;;;3.03;0.60;;;14.70;63.70;;;;;;5092237;28;20071;-65
2021/05/01 12:51:12;;;;;;;2.70;0.70;;;14.40;65.10;;;;;;5083842;28;20048;-66
2021/05/01 12:53:41;;;;;;;1.88;0.55;;;14.20;63.30;;;;;;5090968;28;20047;-66
2021/05/01 12:56:31;;;;;;;3.05;0.77;;;14.30;67.20;;;;;;5081769;28;20032;-66